createdAt,value
2022-09-05T00:00:05.585Z,14.39
2022-09-05T00:02:49.140Z,14.42
2022-09-05T00:05:28.473Z,14.42
2022-09-05T00:08:05.092Z,14.44
2022-09-05T00:10:50.373Z,14.44
2022-09-05T00:13:38.907Z,14.42
2022-09-05T00:16:52.939Z,14.42
2022-09-05T00:24:21.504Z,14.36
2022-09-05T00:24:35.032Z,14.34
2022-09-05T00:25:44.341Z,14.28
2022-09-05T00:28:28.466Z,14.25
2022-09-05T00:31:55.707Z,14.22
2022-09-05T00:34:26.115Z,14.21
2022-09-05T00:37:02.975Z,14.20
2022-09-05T00:39:35.246Z,14.20
2022-09-05T00:42:14.873Z,14.20
2022-09-05T00:45:00.406Z,14.19
2022-09-05T00:47:47.965Z,14.17
2022-09-05T00:50:24.349Z,14.15
2022-09-05T00:53:06.532Z,14.14
2022-09-05T00:55:46.801Z,14.11
2022-09-05T00:58:35.620Z,14.09
2022-09-05T01:01:10.734Z,14.07
2022-09-05T01:03:50.415Z,14.06
2022-09-05T01:06:33.067Z,14.07
2022-09-05T01:09:17.547Z,14.07
2022-09-05T01:11:49.649Z,14.06
2022-09-05T01:14:47.578Z,14.01
2022-09-05T01:17:23.100Z,13.95
2022-09-05T01:20:19.290Z,13.90
2022-09-05T01:23:12.505Z,13.80
2022-09-05T01:25:40.421Z,13.75
2022-09-05T01:29:15.862Z,13.71
2022-09-05T01:31:27.935Z,13.64
2022-09-05T01:34:32.004Z,13.56
2022-09-05T01:37:03.293Z,13.51
2022-09-05T01:40:14.438Z,13.48
2022-09-05T01:42:50.629Z,13.43
2022-09-05T01:45:47.268Z,13.38
2022-09-05T01:48:21.930Z,13.33
2022-09-05T01:51:06.751Z,13.25
2022-09-05T01:54:05.620Z,13.19
2022-09-05T01:57:03.251Z,13.11
2022-09-05T01:59:46.013Z,13.05
2022-09-05T02:02:12.870Z,13.01
2022-09-05T02:04:54.766Z,12.94
2022-09-05T02:07:31.737Z,12.89
2022-09-05T02:10:30.911Z,12.80
2022-09-05T02:13:15.652Z,12.72
2022-09-05T02:15:59.659Z,12.64
2022-09-05T02:19:01.365Z,12.57
2022-09-05T02:21:39.218Z,12.48
2022-09-05T02:24:34.541Z,12.44
2022-09-05T02:28:03.482Z,12.39
2022-09-05T02:30:19.428Z,12.34
2022-09-05T02:33:09.970Z,12.30
2022-09-05T02:35:48.934Z,12.22
2022-09-05T02:43:14.341Z,12.18
2022-09-05T02:45:12.793Z,12.11
2022-09-05T02:45:20.006Z,12.07
2022-09-05T02:47:51.926Z,12.03
2022-09-05T02:54:12.860Z,12.00
2022-09-05T02:57:34.570Z,12.00
2022-09-05T02:57:40.448Z,11.99
2022-09-05T02:59:39.504Z,12.01
2022-09-05T03:02:31.366Z,12.00
2022-09-05T03:05:09.709Z,11.96
2022-09-05T03:08:10.770Z,11.97
2022-09-05T03:10:55.964Z,11.97
2022-09-05T03:13:55.733Z,11.94
2022-09-05T03:16:42.115Z,11.93
2022-09-05T03:19:51.311Z,11.90
2022-09-05T03:22:56.924Z,11.90
2022-09-05T03:25:35.377Z,11.90
2022-09-05T03:28:26.808Z,11.90
2022-09-05T03:31:08.883Z,11.89
2022-09-05T03:34:13.859Z,11.87
2022-09-05T03:36:46.441Z,11.85
2022-09-05T03:39:45.445Z,11.80
2022-09-05T03:42:17.971Z,11.72
2022-09-05T03:44:48.781Z,11.64
2022-09-05T03:47:39.717Z,11.57
2022-09-05T03:57:04.464Z,11.47
2022-09-05T03:57:18.180Z,11.29
2022-09-05T03:57:19.763Z,11.37
2022-09-05T04:00:09.663Z,11.25
2022-09-05T04:08:05.774Z,11.18
2022-09-05T04:08:23.655Z,11.16
2022-09-05T04:08:47.513Z,11.13
2022-09-05T04:11:17.137Z,11.06
2022-09-05T04:14:11.301Z,11.03
2022-09-05T04:16:47.769Z,11.04
2022-09-05T04:19:34.981Z,11.03
2022-09-05T04:22:31.344Z,11.01
2022-09-05T04:25:32.336Z,10.98
2022-09-05T04:28:01.828Z,10.95
2022-09-05T04:30:46.364Z,10.93
2022-09-05T04:33:36.676Z,10.94
2022-09-05T04:36:30.409Z,10.95
2022-09-05T04:39:18.655Z,10.96
2022-09-05T04:41:50.665Z,10.96
2022-09-05T04:44:28.530Z,10.97
2022-09-05T04:47:03.664Z,10.98
2022-09-05T04:49:37.939Z,11.01
2022-09-05T04:52:44.529Z,11.04
2022-09-05T04:55:17.666Z,11.09
2022-09-05T04:58:11.050Z,11.15
2022-09-05T05:06:01.639Z,11.20
2022-09-05T05:06:09.963Z,11.26
2022-09-05T05:06:45.953Z,11.37
2022-09-05T05:09:44.637Z,11.44
2022-09-05T05:17:58.680Z,11.52
2022-09-05T05:18:08.469Z,11.60
2022-09-05T05:18:38.658Z,11.71
2022-09-05T05:21:23.851Z,11.83
2022-09-05T05:24:19.984Z,11.95
2022-09-05T05:26:56.643Z,12.03
2022-09-05T05:30:02.017Z,12.15
2022-09-05T05:32:49.332Z,12.23
2022-09-05T05:35:28.263Z,12.30
2022-09-05T05:38:25.870Z,12.38
2022-09-05T05:41:28.406Z,12.46
2022-09-05T05:43:55.263Z,12.53
2022-09-05T05:46:39.536Z,12.61
2022-09-05T05:49:32.078Z,12.70
2022-09-05T05:52:13.913Z,12.79
2022-09-05T05:54:51.238Z,12.90
2022-09-05T05:57:49.457Z,13.00
2022-09-05T06:00:27.849Z,13.08
2022-09-05T06:03:26.226Z,13.15
2022-09-05T06:06:15.562Z,13.24
2022-09-05T06:13:38.954Z,13.31
2022-09-05T06:14:57.130Z,13.40
2022-09-05T06:15:19.602Z,13.51
2022-09-05T06:18:17.773Z,13.63
2022-09-05T06:22:10.455Z,13.71
2022-09-05T06:24:07.827Z,13.80
2022-09-05T06:26:37.699Z,13.88
2022-09-05T06:29:38.130Z,13.95
2022-09-05T06:32:26.627Z,14.06
2022-09-05T06:35:14.589Z,14.17
2022-09-05T06:38:04.063Z,14.26
2022-09-05T06:40:52.107Z,14.35
2022-09-05T06:43:33.180Z,14.41
2022-09-05T06:46:15.647Z,14.48
2022-09-05T06:49:30.425Z,14.54
2022-09-05T06:52:29.459Z,14.65
2022-09-05T06:55:08.726Z,14.74
2022-09-05T06:57:59.509Z,14.79
2022-09-05T07:00:49.956Z,14.89
2022-09-05T07:03:40.604Z,14.98
2022-09-05T07:06:19.677Z,15.03
2022-09-05T07:08:54.625Z,15.05
2022-09-05T07:11:31.962Z,15.08
2022-09-05T07:14:09.217Z,15.09
2022-09-05T07:16:53.600Z,15.14
2022-09-05T07:19:29.377Z,15.19
2022-09-05T07:22:48.547Z,15.21
2022-09-05T07:25:20.566Z,15.26
2022-09-05T07:28:29.740Z,15.34
2022-09-05T07:31:08.542Z,15.44
2022-09-05T07:33:39.247Z,15.53
2022-09-05T07:36:10.831Z,15.56
2022-09-05T07:38:54.753Z,15.62
2022-09-05T07:41:27.489Z,15.70
2022-09-05T07:44:02.323Z,15.81
2022-09-05T07:46:34.811Z,15.94
2022-09-05T07:49:20.939Z,16.10
2022-09-05T07:56:52.163Z,16.53
2022-09-05T07:56:56.678Z,16.29
2022-09-05T07:57:43.687Z,16.81
2022-09-05T08:00:26.220Z,17.10
2022-09-05T08:02:59.359Z,17.54
2022-09-05T08:05:34.457Z,18.06
2022-09-05T08:08:07.949Z,18.69
2022-09-05T08:11:14.489Z,19.42
2022-09-05T08:13:46.306Z,20.33
2022-09-05T08:16:19.495Z,21.16
2022-09-05T08:18:50.431Z,22.10
2022-09-05T08:21:27.260Z,23.23
2022-09-05T08:24:13.786Z,24.51
2022-09-05T08:26:48.252Z,25.73
2022-09-05T08:29:43.982Z,26.96
2022-09-05T08:32:39.269Z,27.94
2022-09-05T08:35:24.583Z,28.69
2022-09-05T08:37:53.249Z,29.17
2022-09-05T08:40:26.639Z,29.60
2022-09-05T08:45:58.570Z,30.35
2022-09-05T08:46:45.882Z,30.98
2022-09-05T08:49:57.913Z,31.79
2022-09-05T08:52:46.361Z,32.13
2022-09-05T08:55:38.061Z,31.63
2022-09-05T08:58:30.725Z,31.59
2022-09-05T09:01:20.241Z,31.99
2022-09-05T09:04:16.143Z,31.66
2022-09-05T09:07:48.044Z,30.76
2022-09-05T09:10:37.440Z,30.85
2022-09-05T09:13:11.924Z,31.66
2022-09-05T09:16:11.011Z,32.42
2022-09-05T09:18:49.737Z,33.44
2022-09-05T09:21:56.788Z,33.95
2022-09-05T09:25:11.238Z,33.61
2022-09-05T09:28:27.820Z,32.81
2022-09-05T09:30:58.313Z,31.91
2022-09-05T09:33:51.651Z,31.38
2022-09-05T09:36:45.729Z,30.64
2022-09-05T09:39:38.679Z,30.41
2022-09-05T09:42:40.138Z,30.83
2022-09-05T09:45:29.609Z,31.31
2022-09-05T09:48:08.402Z,30.94
2022-09-05T09:50:45.097Z,30.31
2022-09-05T09:54:04.313Z,29.62
2022-09-05T09:56:49.606Z,29.14
2022-09-05T09:59:35.003Z,29.15
2022-09-05T10:04:10.470Z,29.42
2022-09-05T10:10:48.647Z,30.23
2022-09-05T10:10:56.163Z,30.29
2022-09-05T10:12:03.527Z,29.81
2022-09-05T10:15:00.319Z,29.34
2022-09-05T10:17:48.457Z,28.72
2022-09-05T10:20:36.104Z,28.17
2022-09-05T10:23:08.470Z,27.59
2022-09-05T10:25:56.131Z,27.08
2022-09-05T10:28:36.878Z,26.51
2022-09-05T10:33:18.323Z,25.88
2022-09-05T10:35:14.790Z,25.32
2022-09-05T10:37:14.837Z,24.84
2022-09-05T10:39:50.247Z,24.53
2022-09-05T10:42:30.070Z,24.30
2022-09-05T10:44:58.118Z,24.16
2022-09-05T10:47:47.971Z,24.07
2022-09-05T10:50:30.202Z,23.94
2022-09-05T10:53:24.375Z,24.52
2022-09-05T10:55:52.415Z,25.74
2022-09-05T11:00:54.437Z,26.18
2022-09-05T11:02:27.376Z,26.18
2022-09-05T11:04:49.365Z,26.04
2022-09-05T11:07:40.044Z,25.96
2022-09-05T11:10:57.480Z,26.45
2022-09-05T11:13:39.575Z,26.34
2022-09-05T11:16:24.088Z,26.08
2022-09-05T11:19:03.789Z,25.80
2022-09-05T11:21:45.441Z,25.67
2022-09-05T11:24:28.962Z,25.50
2022-09-05T11:27:25.334Z,25.43
2022-09-05T11:30:02.000Z,25.42
2022-09-05T11:36:27.628Z,25.27
2022-09-05T11:39:50.488Z,25.10
2022-09-05T11:39:54.097Z,25.16
2022-09-05T11:42:24.056Z,25.18
2022-09-05T11:44:56.967Z,25.16
2022-09-05T11:47:30.039Z,25.03
2022-09-05T11:50:32.877Z,24.84
2022-09-05T11:53:46.997Z,24.64
2022-09-05T11:56:31.649Z,24.41
2022-09-05T12:00:30.834Z,24.26
2022-09-05T12:02:58.085Z,24.49
2022-09-05T12:05:58.626Z,24.68
2022-09-05T12:08:39.906Z,24.71
2022-09-05T12:11:47.803Z,24.65
2022-09-05T12:14:39.553Z,24.65
2022-09-05T12:17:16.865Z,24.70
2022-09-05T12:19:57.144Z,24.84
2022-09-05T12:22:56.449Z,24.96
2022-09-05T12:27:37.084Z,25.22
2022-09-05T12:29:26.025Z,26.01
2022-09-05T12:32:31.021Z,26.77
2022-09-05T12:36:04.363Z,27.72
2022-09-05T12:40:43.290Z,29.59
2022-09-05T12:40:44.558Z,28.66
2022-09-05T12:42:49.804Z,30.51
2022-09-05T12:46:14.377Z,31.61
2022-09-05T12:48:55.191Z,32.52
2022-09-05T12:51:46.199Z,33.17
2022-09-05T12:54:34.708Z,33.52
2022-09-05T13:02:58.132Z,33.37
2022-09-05T13:03:00.957Z,32.15
2022-09-05T13:03:05.296Z,33.07
2022-09-05T13:05:51.732Z,31.45
2022-09-05T13:08:23.643Z,31.87
2022-09-05T13:14:46.130Z,32.74
2022-09-05T13:14:53.290Z,33.89
2022-09-05T13:17:09.111Z,34.74
2022-09-05T13:19:45.921Z,35.30
2022-09-05T13:22:16.551Z,35.77
2022-09-05T13:24:59.698Z,36.07
2022-09-05T13:27:33.528Z,36.16
2022-09-05T13:31:57.637Z,36.34
2022-09-05T13:38:11.510Z,36.48
2022-09-05T13:38:20.783Z,36.54
2022-09-05T13:39:10.927Z,36.27
2022-09-05T13:41:46.470Z,36.03
2022-09-05T13:44:26.802Z,35.79
2022-09-05T13:47:29.397Z,35.98
2022-09-05T13:50:29.331Z,36.19
2022-09-05T13:53:02.553Z,35.98
2022-09-05T13:55:38.234Z,35.05
2022-09-05T13:58:24.285Z,33.85
2022-09-05T14:00:57.091Z,32.12
2022-09-05T14:03:58.482Z,31.06
2022-09-05T14:06:47.449Z,31.15
2022-09-05T14:09:51.518Z,31.60
2022-09-05T14:12:42.220Z,31.97
2022-09-05T14:15:36.001Z,32.12
2022-09-05T14:18:22.272Z,32.12
2022-09-05T14:21:18.016Z,32.18
2022-09-05T14:23:53.809Z,32.19
2022-09-05T14:26:42.375Z,32.01
2022-09-05T14:29:26.409Z,31.74
2022-09-05T14:37:37.130Z,31.45
2022-09-05T14:37:52.920Z,30.54
2022-09-05T14:38:33.605Z,29.83
2022-09-05T14:41:19.090Z,29.38
2022-09-05T14:44:20.742Z,28.47
2022-09-05T14:47:35.631Z,27.68
2022-09-05T14:50:18.279Z,26.84
2022-09-05T14:56:23.196Z,25.65
2022-09-05T15:02:39.817Z,25.13
2022-09-05T15:02:53.584Z,24.56
2022-09-05T15:05:13.162Z,24.19
2022-09-05T15:07:55.243Z,23.91
2022-09-05T15:12:24.880Z,23.65
2022-09-05T15:13:29.313Z,23.37
2022-09-05T15:16:09.917Z,23.08
2022-09-05T15:18:44.223Z,22.83
2022-09-05T15:21:33.216Z,22.59
2022-09-05T15:24:04.078Z,22.40
2022-09-05T15:26:53.926Z,22.23
2022-09-05T15:29:28.230Z,22.10
2022-09-05T15:32:11.948Z,22.00
2022-09-05T15:34:39.667Z,21.93
2022-09-05T15:37:40.561Z,21.90
2022-09-05T15:40:23.320Z,21.89
2022-09-05T15:43:02.287Z,21.90
2022-09-05T15:45:32.894Z,21.89
2022-09-05T15:48:23.938Z,21.86
2022-09-05T15:50:56.654Z,21.78
2022-09-05T15:53:29.372Z,21.67
2022-09-05T15:56:16.535Z,21.55
2022-09-05T15:58:56.610Z,21.41
2022-09-05T16:01:58.367Z,21.29
2022-09-05T16:06:12.679Z,21.18
2022-09-05T16:10:39.695Z,21.04
2022-09-05T16:13:33.897Z,20.79
2022-09-05T16:23:11.493Z,20.67
2022-09-05T16:23:15.338Z,20.56
2022-09-05T16:23:33.825Z,20.46
2022-09-05T16:24:59.358Z,20.36
2022-09-05T16:27:52.052Z,20.26
2022-09-05T16:30:32.405Z,20.19
2022-09-05T16:33:10.925Z,20.11
2022-09-05T16:36:19.542Z,20.03
2022-09-05T16:39:17.208Z,19.95
2022-09-05T16:41:48.881Z,19.86
2022-09-05T16:44:41.951Z,19.78
2022-09-05T16:47:30.134Z,19.68
2022-09-05T16:50:23.977Z,19.59
2022-09-05T16:53:30.281Z,19.50
2022-09-05T16:56:26.407Z,19.42
2022-09-05T16:59:02.198Z,19.34
2022-09-05T17:02:09.414Z,19.26
2022-09-05T17:05:04.247Z,19.16
2022-09-05T17:07:58.480Z,19.03
2022-09-05T17:10:32.246Z,18.88
2022-09-05T17:13:03.038Z,18.75
2022-09-05T17:15:52.019Z,18.64
2022-09-05T17:18:25.940Z,18.48
2022-09-05T17:20:59.971Z,18.34
2022-09-05T17:29:15.649Z,18.20
2022-09-05T17:29:25.039Z,18.03
2022-09-05T17:32:52.815Z,17.72
2022-09-05T17:35:46.764Z,17.57
2022-09-05T17:38:31.205Z,17.41
2022-09-05T17:41:36.080Z,17.28
2022-09-05T17:44:29.099Z,17.14
2022-09-05T17:47:15.195Z,17.01
2022-09-05T17:49:53.917Z,16.87
2022-09-05T17:52:25.370Z,16.76
2022-09-05T17:54:57.409Z,16.68
2022-09-05T17:57:53.680Z,16.57
2022-09-05T18:01:04.880Z,16.44
2022-09-05T18:03:38.626Z,16.29
2022-09-05T18:06:41.594Z,16.20
2022-09-05T18:15:54.617Z,15.84
2022-09-05T18:19:33.468Z,15.77
2022-09-05T18:22:06.402Z,15.65
2022-09-05T18:24:46.824Z,15.59
2022-09-05T18:27:43.950Z,15.54
2022-09-05T18:30:27.187Z,15.49
2022-09-05T18:33:33.281Z,15.42
2022-09-05T18:35:55.510Z,15.36
2022-09-05T18:38:51.470Z,15.30
2022-09-05T18:41:18.960Z,15.23
2022-09-05T18:44:12.296Z,15.17
2022-09-05T18:46:55.627Z,15.09
2022-09-05T18:50:21.472Z,15.04
2022-09-05T18:52:33.611Z,15.02
2022-09-05T18:56:11.054Z,14.99
2022-09-05T18:58:05.878Z,14.97
2022-09-05T19:00:44.631Z,14.95
2022-09-05T19:03:41.097Z,14.92
2022-09-05T19:06:36.250Z,14.90
2022-09-05T19:09:09.585Z,14.84
2022-09-05T19:11:52.950Z,14.80
2022-09-05T19:14:46.383Z,14.74
2022-09-05T19:17:20.591Z,14.70
2022-09-05T19:20:31.876Z,14.63
2022-09-05T19:23:10.096Z,14.54
2022-09-05T19:25:46.416Z,14.49
2022-09-05T19:36:52.190Z,14.44
2022-09-05T19:36:53.761Z,14.36
2022-09-05T19:37:23.917Z,14.30
2022-09-05T19:42:36.452Z,14.16
2022-09-05T19:47:31.703Z,14.08
2022-09-05T19:47:40.061Z,14.04
2022-09-05T19:48:25.250Z,13.97
2022-09-05T19:50:56.769Z,13.92
2022-09-05T19:53:24.151Z,13.90
2022-09-05T19:55:51.663Z,13.85
2022-09-05T19:58:21.389Z,13.82
2022-09-05T20:01:02.906Z,13.80
2022-09-05T20:03:39.520Z,13.76
2022-09-05T20:06:30.109Z,13.72
2022-09-05T20:09:29.810Z,13.72
2022-09-05T20:11:58.893Z,13.71
2022-09-05T20:14:37.805Z,13.73
2022-09-05T20:17:20.913Z,13.78
2022-09-05T20:19:47.717Z,13.80
2022-09-05T20:22:49.226Z,13.82
2022-09-05T20:25:19.694Z,13.84
2022-09-05T20:28:00.413Z,13.86
2022-09-05T20:30:35.072Z,13.85
2022-09-05T20:33:11.166Z,13.84
2022-09-05T20:39:47.516Z,13.83
2022-09-05T20:43:18.924Z,13.80
2022-09-05T20:43:21.191Z,13.78
2022-09-05T20:44:22.790Z,13.77
2022-09-05T20:49:44.858Z,13.73
2022-09-05T20:54:12.982Z,13.72
2022-09-05T20:54:27.553Z,13.71
2022-09-05T20:55:42.312Z,13.70
2022-09-05T20:58:37.038Z,13.70
2022-09-05T21:01:23.543Z,13.68
2022-09-05T21:04:02.721Z,13.68
2022-09-05T21:06:37.672Z,13.65
2022-09-05T21:09:29.362Z,13.64
2022-09-05T21:11:58.989Z,13.62
2022-09-05T21:14:29.520Z,13.60
2022-09-05T21:17:00.105Z,13.59
2022-09-05T21:19:31.322Z,13.58
2022-09-05T21:22:23.853Z,13.56
2022-09-05T21:25:11.945Z,13.54
2022-09-05T21:27:39.259Z,13.52
2022-09-05T21:30:31.250Z,13.53
2022-09-05T21:33:08.688Z,13.51
2022-09-05T21:35:50.955Z,13.49
2022-09-05T21:38:32.703Z,13.46
2022-09-05T21:41:05.226Z,13.43
2022-09-05T21:47:34.398Z,13.40
2022-09-05T21:47:37.540Z,13.36
2022-09-05T21:49:09.181Z,13.31
2022-09-05T21:51:37.293Z,13.30
2022-09-05T21:59:16.076Z,13.27
2022-09-05T21:59:29.832Z,13.24
2022-09-05T22:00:07.130Z,13.22
2022-09-05T22:02:38.296Z,13.20
2022-09-05T22:05:05.432Z,13.18
2022-09-05T22:07:36.595Z,13.16
2022-09-05T22:10:05.926Z,13.14
2022-09-05T22:12:38.869Z,13.12
2022-09-05T22:15:29.089Z,13.07
2022-09-05T22:18:16.780Z,13.02
2022-09-05T22:20:51.229Z,13.00
2022-09-05T22:23:37.001Z,12.99
2022-09-05T22:26:07.151Z,12.96
2022-09-05T22:28:38.476Z,12.95
2022-09-05T22:31:07.551Z,12.94
2022-09-05T22:33:34.980Z,12.92
2022-09-05T22:36:01.796Z,12.91
2022-09-05T22:38:28.508Z,12.88
2022-09-05T22:40:58.229Z,12.88
2022-09-05T22:43:25.079Z,12.83
2022-09-05T22:45:55.414Z,12.83
2022-09-05T22:48:22.199Z,12.79
2022-09-05T22:50:49.141Z,12.76
2022-09-05T22:53:15.828Z,12.76
2022-09-05T22:55:44.225Z,12.72
2022-09-05T22:58:14.879Z,12.71
2022-09-05T23:00:41.943Z,12.69
2022-09-05T23:03:08.714Z,12.65
2022-09-05T23:05:35.436Z,12.64
2022-09-05T23:08:04.123Z,12.60
2022-09-05T23:10:31.269Z,12.58
2022-09-05T23:12:58.840Z,12.55
2022-09-05T23:15:25.910Z,12.54
2022-09-05T23:17:57.219Z,12.51
2022-09-05T23:20:26.277Z,12.51
2022-09-05T23:22:54.142Z,12.48
2022-09-05T23:25:22.380Z,12.46
2022-09-05T23:27:49.478Z,12.45
2022-09-05T23:30:16.923Z,12.44
2022-09-05T23:32:45.321Z,12.42
2022-09-05T23:35:13.026Z,12.39
2022-09-05T23:37:46.657Z,12.37
2022-09-05T23:40:18.044Z,12.35
2022-09-05T23:42:59.018Z,12.34
2022-09-05T23:45:26.911Z,12.32
2022-09-05T23:48:20.735Z,12.33
2022-09-05T23:50:49.887Z,12.30
2022-09-05T23:53:17.072Z,12.27
2022-09-05T23:55:43.992Z,12.25
2022-09-05T23:58:12.222Z,12.24
